sensor_id;sensor_type;location;lat;lon;timestamp;temperature;humidity
20856;DHT22;63058;49.424;8.420;2022-12-18T00:01:33;-1.60;96.10
20856;DHT22;63058;49.424;8.420;2022-12-18T00:03:59;-1.60;96.10
20856;DHT22;63058;49.424;8.420;2022-12-18T00:06:26;-1.60;96.20
20856;DHT22;63058;49.424;8.420;2022-12-18T00:08:54;-1.60;96.20
20856;DHT22;63058;49.424;8.420;2022-12-18T00:11:22;-1.60;96.20
20856;DHT22;63058;49.424;8.420;2022-12-18T00:13:48;-1.60;96.20
20856;DHT22;63058;49.424;8.420;2022-12-18T00:16:20;-1.60;96.30
20856;DHT22;63058;49.424;8.420;2022-12-18T00:18:47;-1.60;96.20
20856;DHT22;63058;49.424;8.420;2022-12-18T00:21:14;-1.70;96.20
20856;DHT22;63058;49.424;8.420;2022-12-18T00:23:41;-1.70;96.10
20856;DHT22;63058;49.424;8.420;2022-12-18T00:26:13;-1.70;96.10
20856;DHT22;63058;49.424;8.420;2022-12-18T00:28:40;-1.70;96.20
20856;DHT22;63058;49.424;8.420;2022-12-18T00:31:16;-1.70;96.20
20856;DHT22;63058;49.424;8.420;2022-12-18T00:33:42;-1.70;96.20
20856;DHT22;63058;49.424;8.420;2022-12-18T00:36:10;-1.70;96.30
20856;DHT22;63058;49.424;8.420;2022-12-18T00:38:37;-1.70;96.30
20856;DHT22;63058;49.424;8.420;2022-12-18T00:41:04;-1.70;96.30
20856;DHT22;63058;49.424;8.420;2022-12-18T00:43:30;-1.60;96.30
20856;DHT22;63058;49.424;8.420;2022-12-18T00:45:56;-1.60;96.20
20856;DHT22;63058;49.424;8.420;2022-12-18T00:48:22;-1.70;96.20
20856;DHT22;63058;49.424;8.420;2022-12-18T00:50:48;-1.70;96.20
20856;DHT22;63058;49.424;8.420;2022-12-18T00:53:14;-1.70;96.30
20856;DHT22;63058;49.424;8.420;2022-12-18T00:55:40;-1.70;96.30
20856;DHT22;63058;49.424;8.420;2022-12-18T00:58:06;-1.70;96.30
20856;DHT22;63058;49.424;8.420;2022-12-18T01:00:31;-1.70;96.20
20856;DHT22;63058;49.424;8.420;2022-12-18T01:02:57;-1.70;96.20
20856;DHT22;63058;49.424;8.420;2022-12-18T01:05:22;-1.70;96.30
20856;DHT22;63058;49.424;8.420;2022-12-18T01:07:48;-1.70;96.30
20856;DHT22;63058;49.424;8.420;2022-12-18T01:10:14;-1.70;96.30
20856;DHT22;63058;49.424;8.420;2022-12-18T01:12:39;-1.70;96.30
20856;DHT22;63058;49.424;8.420;2022-12-18T01:15:06;-1.70;96.30
20856;DHT22;63058;49.424;8.420;2022-12-18T01:17:33;-1.60;96.40
20856;DHT22;63058;49.424;8.420;2022-12-18T01:19:58;-1.60;96.60
20856;DHT22;63058;49.424;8.420;2022-12-18T01:22:24;-1.50;96.50
20856;DHT22;63058;49.424;8.420;2022-12-18T01:24:50;-1.50;96.50
20856;DHT22;63058;49.424;8.420;2022-12-18T01:27:15;-1.50;96.50
20856;DHT22;63058;49.424;8.420;2022-12-18T01:29:41;-1.40;96.60
20856;DHT22;63058;49.424;8.420;2022-12-18T01:32:07;-1.40;96.50
20856;DHT22;63058;49.424;8.420;2022-12-18T01:34:35;-1.40;96.30
20856;DHT22;63058;49.424;8.420;2022-12-18T01:37:02;-1.40;96.20
20856;DHT22;63058;49.424;8.420;2022-12-18T01:39:28;-1.40;96.20
20856;DHT22;63058;49.424;8.420;2022-12-18T01:41:54;-1.30;96.20
20856;DHT22;63058;49.424;8.420;2022-12-18T01:44:57;-1.40;96.00
20856;DHT22;63058;49.424;8.420;2022-12-18T01:47:30;-1.50;95.80
20856;DHT22;63058;49.424;8.420;2022-12-18T01:49:58;-1.50;95.90
20856;DHT22;63058;49.424;8.420;2022-12-18T01:52:27;-1.60;96.00
20856;DHT22;63058;49.424;8.420;2022-12-18T01:54:53;-1.60;96.20
20856;DHT22;63058;49.424;8.420;2022-12-18T01:57:19;-1.60;96.10
20856;DHT22;63058;49.424;8.420;2022-12-18T01:59:49;-1.60;96.00
20856;DHT22;63058;49.424;8.420;2022-12-18T02:02:17;-1.60;96.00
20856;DHT22;63058;49.424;8.420;2022-12-18T02:04:44;-1.60;96.10
20856;DHT22;63058;49.424;8.420;2022-12-18T02:07:33;-1.60;96.20
20856;DHT22;63058;49.424;8.420;2022-12-18T02:10:08;-1.60;96.20
20856;DHT22;63058;49.424;8.420;2022-12-18T02:15:21;-1.50;96.20
20856;DHT22;63058;49.424;8.420;2022-12-18T02:18:36;-1.50;96.00
20856;DHT22;63058;49.424;8.420;2022-12-18T02:20:47;-1.50;95.80
20856;DHT22;63058;49.424;8.420;2022-12-18T02:26:26;-1.60;95.50
20856;DHT22;63058;49.424;8.420;2022-12-18T02:29:02;-1.60;95.50
20856;DHT22;63058;49.424;8.420;2022-12-18T02:31:35;-1.70;95.50
20856;DHT22;63058;49.424;8.420;2022-12-18T02:34:03;-1.80;95.50
20856;DHT22;63058;49.424;8.420;2022-12-18T02:36:32;-1.80;95.70
20856;DHT22;63058;49.424;8.420;2022-12-18T02:38:59;-1.80;95.70
20856;DHT22;63058;49.424;8.420;2022-12-18T02:41:27;-1.80;95.70
20856;DHT22;63058;49.424;8.420;2022-12-18T02:43:58;-1.80;95.60
20856;DHT22;63058;49.424;8.420;2022-12-18T02:46:28;-1.90;95.40
20856;DHT22;63058;49.424;8.420;2022-12-18T02:57:18;-2.00;95.60
20856;DHT22;63058;49.424;8.420;2022-12-18T03:00:08;-2.10;95.60
20856;DHT22;63058;49.424;8.420;2022-12-18T03:02:41;-2.10;95.40
20856;DHT22;63058;49.424;8.420;2022-12-18T03:05:11;-2.20;95.60
20856;DHT22;63058;49.424;8.420;2022-12-18T03:07:58;-2.20;95.60
20856;DHT22;63058;49.424;8.420;2022-12-18T03:10:29;-2.20;95.70
20856;DHT22;63058;49.424;8.420;2022-12-18T03:13:07;-2.20;95.80
20856;DHT22;63058;49.424;8.420;2022-12-18T03:15:44;-2.30;95.80
20856;DHT22;63058;49.424;8.420;2022-12-18T03:18:30;-2.30;95.80
20856;DHT22;63058;49.424;8.420;2022-12-18T03:21:00;-2.20;95.90
20856;DHT22;63058;49.424;8.420;2022-12-18T03:23:32;-2.20;96.10
20856;DHT22;63058;49.424;8.420;2022-12-18T03:26:05;-2.10;96.10
20856;DHT22;63058;49.424;8.420;2022-12-18T03:28:35;-2.10;95.90
20856;DHT22;63058;49.424;8.420;2022-12-18T03:31:04;-2.10;95.80
20856;DHT22;63058;49.424;8.420;2022-12-18T03:34:09;-2.10;95.80
20856;DHT22;63058;49.424;8.420;2022-12-18T03:36:38;-2.10;95.70
20856;DHT22;63058;49.424;8.420;2022-12-18T03:39:03;-2.10;95.80
20856;DHT22;63058;49.424;8.420;2022-12-18T03:41:42;-2.10;95.80
20856;DHT22;63058;49.424;8.420;2022-12-18T03:46:48;-2.10;95.70
20856;DHT22;63058;49.424;8.420;2022-12-18T03:49:36;-2.10;95.70
20856;DHT22;63058;49.424;8.420;2022-12-18T03:52:08;-2.10;95.70
20856;DHT22;63058;49.424;8.420;2022-12-18T03:54:35;-2.10;95.70
20856;DHT22;63058;49.424;8.420;2022-12-18T03:57:13;-2.10;95.80
20856;DHT22;63058;49.424;8.420;2022-12-18T03:59:42;-2.10;95.80
20856;DHT22;63058;49.424;8.420;2022-12-18T04:02:09;-2.10;96.20
20856;DHT22;63058;49.424;8.420;2022-12-18T04:04:39;-2.10;95.80
20856;DHT22;63058;49.424;8.420;2022-12-18T04:07:06;-2.10;95.80
20856;DHT22;63058;49.424;8.420;2022-12-18T04:09:33;-2.10;95.80
20856;DHT22;63058;49.424;8.420;2022-12-18T04:11:59;-2.10;95.70
20856;DHT22;63058;49.424;8.420;2022-12-18T04:14:25;-2.10;95.70
20856;DHT22;63058;49.424;8.420;2022-12-18T04:16:50;-2.10;95.80
20856;DHT22;63058;49.424;8.420;2022-12-18T04:19:16;-2.00;95.80
20856;DHT22;63058;49.424;8.420;2022-12-18T04:21:42;-2.00;95.90
20856;DHT22;63058;49.424;8.420;2022-12-18T04:24:07;-2.00;96.00
20856;DHT22;63058;49.424;8.420;2022-12-18T04:26:33;-1.90;96.00
20856;DHT22;63058;49.424;8.420;2022-12-18T04:28:59;-1.80;95.80
20856;DHT22;63058;49.424;8.420;2022-12-18T04:31:25;-1.90;95.80
20856;DHT22;63058;49.424;8.420;2022-12-18T04:33:50;-1.90;95.80
20856;DHT22;63058;49.424;8.420;2022-12-18T04:36:16;-1.90;95.80
20856;DHT22;63058;49.424;8.420;2022-12-18T04:38:41;-1.90;95.80
20856;DHT22;63058;49.424;8.420;2022-12-18T04:41:07;-1.90;95.70
20856;DHT22;63058;49.424;8.420;2022-12-18T04:43:33;-1.90;95.70
20856;DHT22;63058;49.424;8.420;2022-12-18T04:46:06;-1.90;95.60
20856;DHT22;63058;49.424;8.420;2022-12-18T04:48:33;-1.90;95.50
20856;DHT22;63058;49.424;8.420;2022-12-18T04:50:58;-2.00;95.60
20856;DHT22;63058;49.424;8.420;2022-12-18T04:53:24;-1.90;95.60
20856;DHT22;63058;49.424;8.420;2022-12-18T04:55:50;-2.00;95.50
20856;DHT22;63058;49.424;8.420;2022-12-18T04:58:15;-2.00;95.50
20856;DHT22;63058;49.424;8.420;2022-12-18T05:00:41;-2.00;95.50
20856;DHT22;63058;49.424;8.420;2022-12-18T05:03:06;-2.10;95.40
20856;DHT22;63058;49.424;8.420;2022-12-18T05:05:34;-2.10;95.40
20856;DHT22;63058;49.424;8.420;2022-12-18T05:08:00;-2.10;95.30
20856;DHT22;63058;49.424;8.420;2022-12-18T05:10:25;-2.10;95.30
20856;DHT22;63058;49.424;8.420;2022-12-18T05:12:51;-2.20;95.30
20856;DHT22;63058;49.424;8.420;2022-12-18T05:15:30;-2.20;95.50
20856;DHT22;63058;49.424;8.420;2022-12-18T05:17:59;-2.20;95.50
20856;DHT22;63058;49.424;8.420;2022-12-18T05:20:26;-2.20;95.50
20856;DHT22;63058;49.424;8.420;2022-12-18T05:22:52;-2.20;95.50
20856;DHT22;63058;49.424;8.420;2022-12-18T05:25:19;-2.20;95.50
20856;DHT22;63058;49.424;8.420;2022-12-18T05:27:45;-2.20;95.50
20856;DHT22;63058;49.424;8.420;2022-12-18T05:30:11;-2.20;95.60
20856;DHT22;63058;49.424;8.420;2022-12-18T05:32:38;-2.20;95.60
20856;DHT22;63058;49.424;8.420;2022-12-18T05:35:05;-2.20;95.60
20856;DHT22;63058;49.424;8.420;2022-12-18T05:37:31;-2.20;95.50
20856;DHT22;63058;49.424;8.420;2022-12-18T05:39:56;-2.20;95.60
20856;DHT22;63058;49.424;8.420;2022-12-18T05:42:22;-2.20;95.70
20856;DHT22;63058;49.424;8.420;2022-12-18T05:44:48;-2.20;95.70
20856;DHT22;63058;49.424;8.420;2022-12-18T05:47:13;-2.10;95.60
20856;DHT22;63058;49.424;8.420;2022-12-18T05:49:39;-2.10;95.40
20856;DHT22;63058;49.424;8.420;2022-12-18T05:52:05;-2.10;95.40
20856;DHT22;63058;49.424;8.420;2022-12-18T05:54:30;-2.10;95.40
20856;DHT22;63058;49.424;8.420;2022-12-18T05:56:56;-2.20;95.50
20856;DHT22;63058;49.424;8.420;2022-12-18T05:59:22;-2.10;95.50
20856;DHT22;63058;49.424;8.420;2022-12-18T06:01:48;-2.10;95.40
20856;DHT22;63058;49.424;8.420;2022-12-18T06:04:14;-2.20;95.40
20856;DHT22;63058;49.424;8.420;2022-12-18T06:06:39;-2.20;95.30
20856;DHT22;63058;49.424;8.420;2022-12-18T06:09:05;-2.20;95.30
20856;DHT22;63058;49.424;8.420;2022-12-18T06:11:35;-2.20;95.40
20856;DHT22;63058;49.424;8.420;2022-12-18T06:14:02;-2.30;95.40
20856;DHT22;63058;49.424;8.420;2022-12-18T06:16:28;-2.30;95.40
20856;DHT22;63058;49.424;8.420;2022-12-18T06:18:58;-2.30;95.40
20856;DHT22;63058;49.424;8.420;2022-12-18T06:21:25;-2.30;95.30
20856;DHT22;63058;49.424;8.420;2022-12-18T06:23:50;-2.30;95.40
20856;DHT22;63058;49.424;8.420;2022-12-18T06:26:16;-2.30;95.40
20856;DHT22;63058;49.424;8.420;2022-12-18T06:28:42;-2.30;95.30
20856;DHT22;63058;49.424;8.420;2022-12-18T06:31:08;-2.30;95.30
20856;DHT22;63058;49.424;8.420;2022-12-18T06:33:34;-2.40;95.20
20856;DHT22;63058;49.424;8.420;2022-12-18T06:36:09;-2.40;95.20
20856;DHT22;63058;49.424;8.420;2022-12-18T06:38:37;-2.40;95.20
20856;DHT22;63058;49.424;8.420;2022-12-18T06:41:11;-2.40;95.10
20856;DHT22;63058;49.424;8.420;2022-12-18T06:43:36;-2.40;94.70
20856;DHT22;63058;49.424;8.420;2022-12-18T06:46:03;-2.50;94.40
20856;DHT22;63058;49.424;8.420;2022-12-18T06:48:29;-2.60;94.20
20856;DHT22;63058;49.424;8.420;2022-12-18T06:50:55;-2.70;94.10
20856;DHT22;63058;49.424;8.420;2022-12-18T06:53:21;-2.80;94.10
20856;DHT22;63058;49.424;8.420;2022-12-18T06:55:47;-2.80;94.00
20856;DHT22;63058;49.424;8.420;2022-12-18T06:58:13;-2.90;93.90
20856;DHT22;63058;49.424;8.420;2022-12-18T07:00:39;-3.00;93.90
20856;DHT22;63058;49.424;8.420;2022-12-18T07:03:04;-3.10;93.90
20856;DHT22;63058;49.424;8.420;2022-12-18T07:05:31;-3.10;94.00
20856;DHT22;63058;49.424;8.420;2022-12-18T07:07:57;-3.00;94.00
20856;DHT22;63058;49.424;8.420;2022-12-18T07:10:23;-3.10;94.00
20856;DHT22;63058;49.424;8.420;2022-12-18T07:12:48;-3.10;93.90
20856;DHT22;63058;49.424;8.420;2022-12-18T07:15:14;-3.10;93.90
20856;DHT22;63058;49.424;8.420;2022-12-18T07:17:39;-3.10;93.80
20856;DHT22;63058;49.424;8.420;2022-12-18T07:20:05;-3.20;93.70
20856;DHT22;63058;49.424;8.420;2022-12-18T07:22:31;-3.20;93.60
20856;DHT22;63058;49.424;8.420;2022-12-18T07:24:57;-3.30;93.60
20856;DHT22;63058;49.424;8.420;2022-12-18T07:27:22;-3.30;93.60
20856;DHT22;63058;49.424;8.420;2022-12-18T07:29:48;-3.30;93.70
20856;DHT22;63058;49.424;8.420;2022-12-18T07:32:14;-3.30;93.70
20856;DHT22;63058;49.424;8.420;2022-12-18T07:34:39;-3.30;93.70
20856;DHT22;63058;49.424;8.420;2022-12-18T07:37:05;-3.30;93.90
20856;DHT22;63058;49.424;8.420;2022-12-18T07:39:31;-3.30;94.20
20856;DHT22;63058;49.424;8.420;2022-12-18T07:41:56;-3.30;93.80
20856;DHT22;63058;49.424;8.420;2022-12-18T07:44:41;-3.30;93.90
20856;DHT22;63058;49.424;8.420;2022-12-18T07:47:06;-3.30;93.80
20856;DHT22;63058;49.424;8.420;2022-12-18T07:49:32;-3.30;93.80
20856;DHT22;63058;49.424;8.420;2022-12-18T07:51:58;-3.30;93.70
20856;DHT22;63058;49.424;8.420;2022-12-18T07:54:24;-3.30;93.60
20856;DHT22;63058;49.424;8.420;2022-12-18T07:56:50;-3.30;93.60
20856;DHT22;63058;49.424;8.420;2022-12-18T07:59:16;-3.40;93.60
20856;DHT22;63058;49.424;8.420;2022-12-18T08:01:42;-3.30;93.70
20856;DHT22;63058;49.424;8.420;2022-12-18T08:04:07;-3.40;93.80
20856;DHT22;63058;49.424;8.420;2022-12-18T08:06:33;-3.30;93.90
20856;DHT22;63058;49.424;8.420;2022-12-18T08:08:58;-3.30;93.90
20856;DHT22;63058;49.424;8.420;2022-12-18T08:11:26;-3.30;94.00
20856;DHT22;63058;49.424;8.420;2022-12-18T08:13:52;-3.30;93.90
20856;DHT22;63058;49.424;8.420;2022-12-18T08:16:18;-3.20;94.00
20856;DHT22;63058;49.424;8.420;2022-12-18T08:18:44;-3.20;94.00
20856;DHT22;63058;49.424;8.420;2022-12-18T08:21:22;-3.30;94.00
20856;DHT22;63058;49.424;8.420;2022-12-18T08:23:49;-3.20;94.10
20856;DHT22;63058;49.424;8.420;2022-12-18T08:26:15;-3.20;94.10
20856;DHT22;63058;49.424;8.420;2022-12-18T08:28:42;-3.20;94.20
20856;DHT22;63058;49.424;8.420;2022-12-18T08:31:08;-3.10;94.40
20856;DHT22;63058;49.424;8.420;2022-12-18T08:33:34;-3.20;94.50
20856;DHT22;63058;49.424;8.420;2022-12-18T08:36:00;-3.10;94.60
20856;DHT22;63058;49.424;8.420;2022-12-18T08:38:26;-3.10;94.60
20856;DHT22;63058;49.424;8.420;2022-12-18T08:41:03;-3.10;95.00
20856;DHT22;63058;49.424;8.420;2022-12-18T08:43:29;-3.00;94.70
20856;DHT22;63058;49.424;8.420;2022-12-18T08:46:20;-2.90;94.70
20856;DHT22;63058;49.424;8.420;2022-12-18T08:48:46;-2.80;94.70
20856;DHT22;63058;49.424;8.420;2022-12-18T08:51:11;-2.80;94.70
20856;DHT22;63058;49.424;8.420;2022-12-18T08:53:37;-2.80;94.80
20856;DHT22;63058;49.424;8.420;2022-12-18T08:56:03;-2.70;94.90
20856;DHT22;63058;49.424;8.420;2022-12-18T08:58:29;-2.60;95.00
20856;DHT22;63058;49.424;8.420;2022-12-18T09:01:03;-2.50;94.90
20856;DHT22;63058;49.424;8.420;2022-12-18T09:03:29;-2.50;94.80
20856;DHT22;63058;49.424;8.420;2022-12-18T09:05:55;-2.40;95.00
20856;DHT22;63058;49.424;8.420;2022-12-18T09:08:20;-2.40;95.10
20856;DHT22;63058;49.424;8.420;2022-12-18T09:10:47;-2.40;95.10
20856;DHT22;63058;49.424;8.420;2022-12-18T09:13:14;-2.30;95.20
20856;DHT22;63058;49.424;8.420;2022-12-18T09:15:51;-2.20;95.30
20856;DHT22;63058;49.424;8.420;2022-12-18T09:18:18;-2.10;95.30
20856;DHT22;63058;49.424;8.420;2022-12-18T09:20:45;-2.00;95.80
20856;DHT22;63058;49.424;8.420;2022-12-18T09:23:11;-2.00;95.40
20856;DHT22;63058;49.424;8.420;2022-12-18T09:25:37;-1.90;95.40
20856;DHT22;63058;49.424;8.420;2022-12-18T09:28:11;-1.90;95.40
20856;DHT22;63058;49.424;8.420;2022-12-18T09:30:38;-1.80;95.50
20856;DHT22;63058;49.424;8.420;2022-12-18T09:33:04;-1.70;95.50
20856;DHT22;63058;49.424;8.420;2022-12-18T09:35:29;-1.60;95.70
20856;DHT22;63058;49.424;8.420;2022-12-18T09:37:55;-1.50;95.70
20856;DHT22;63058;49.424;8.420;2022-12-18T09:40:25;-1.50;95.80
20856;DHT22;63058;49.424;8.420;2022-12-18T09:42:56;-1.40;95.70
20856;DHT22;63058;49.424;8.420;2022-12-18T09:45:23;-1.40;95.70
20856;DHT22;63058;49.424;8.420;2022-12-18T09:47:51;-1.30;95.70
20856;DHT22;63058;49.424;8.420;2022-12-18T09:50:27;-1.20;95.70
20856;DHT22;63058;49.424;8.420;2022-12-18T09:52:56;-1.20;95.60
20856;DHT22;63058;49.424;8.420;2022-12-18T09:55:36;-1.10;96.00
20856;DHT22;63058;49.424;8.420;2022-12-18T10:00:53;-0.70;96.30
20856;DHT22;63058;49.424;8.420;2022-12-18T10:03:19;-0.50;96.60
20856;DHT22;63058;49.424;8.420;2022-12-18T10:08:25;0.00;96.80
20856;DHT22;63058;49.424;8.420;2022-12-18T10:14:23;0.50;96.00
20856;DHT22;63058;49.424;8.420;2022-12-18T10:19:56;1.20;96.60
20856;DHT22;63058;49.424;8.420;2022-12-18T10:25:43;1.80;95.80
20856;DHT22;63058;49.424;8.420;2022-12-18T10:28:13;2.10;95.90
20856;DHT22;63058;49.424;8.420;2022-12-18T10:30:40;2.40;96.30
20856;DHT22;63058;49.424;8.420;2022-12-18T10:33:19;2.60;96.50
20856;DHT22;63058;49.424;8.420;2022-12-18T10:35:45;2.70;96.00
20856;DHT22;63058;49.424;8.420;2022-12-18T10:43:35;3.00;95.30
20856;DHT22;63058;49.424;8.420;2022-12-18T10:48:40;3.20;95.80
20856;DHT22;63058;49.424;8.420;2022-12-18T10:51:24;3.30;95.70
20856;DHT22;63058;49.424;8.420;2022-12-18T10:54:12;3.30;95.20
20856;DHT22;63058;49.424;8.420;2022-12-18T10:56:38;3.40;95.00
20856;DHT22;63058;49.424;8.420;2022-12-18T10:59:06;3.50;95.60
20856;DHT22;63058;49.424;8.420;2022-12-18T11:01:58;3.50;95.40
20856;DHT22;63058;49.424;8.420;2022-12-18T11:04:27;3.50;94.80
20856;DHT22;63058;49.424;8.420;2022-12-18T11:07:04;3.60;95.80
20856;DHT22;63058;49.424;8.420;2022-12-18T11:09:35;3.70;95.20
20856;DHT22;63058;49.424;8.420;2022-12-18T11:12:27;3.80;95.30
20856;DHT22;63058;49.424;8.420;2022-12-18T11:14:53;3.80;95.00
20856;DHT22;63058;49.424;8.420;2022-12-18T11:17:28;3.80;95.40
20856;DHT22;63058;49.424;8.420;2022-12-18T11:20:00;3.90;95.50
20856;DHT22;63058;49.424;8.420;2022-12-18T11:22:35;4.00;95.50
20856;DHT22;63058;49.424;8.420;2022-12-18T11:25:02;4.00;94.90
20856;DHT22;63058;49.424;8.420;2022-12-18T11:27:29;4.10;95.50
20856;DHT22;63058;49.424;8.420;2022-12-18T11:33:15;4.20;95.20
20856;DHT22;63058;49.424;8.420;2022-12-18T11:35:51;4.30;95.40
20856;DHT22;63058;49.424;8.420;2022-12-18T11:44:29;4.60;94.70
20856;DHT22;63058;49.424;8.420;2022-12-18T11:47:09;4.60;95.00
20856;DHT22;63058;49.424;8.420;2022-12-18T11:49:39;4.60;94.80
20856;DHT22;63058;49.424;8.420;2022-12-18T11:52:22;4.50;94.70
20856;DHT22;63058;49.424;8.420;2022-12-18T11:54:52;4.40;93.60
20856;DHT22;63058;49.424;8.420;2022-12-18T11:58:31;4.30;94.20
20856;DHT22;63058;49.424;8.420;2022-12-18T12:00:23;4.20;93.70
20856;DHT22;63058;49.424;8.420;2022-12-18T12:15:21;4.00;94.70
20856;DHT22;63058;49.424;8.420;2022-12-18T12:20:22;4.00;95.20
20856;DHT22;63058;49.424;8.420;2022-12-18T12:23:13;3.90;95.40
20856;DHT22;63058;49.424;8.420;2022-12-18T12:25:49;3.90;94.50
20856;DHT22;63058;49.424;8.420;2022-12-18T12:31:11;3.90;94.70
20856;DHT22;63058;49.424;8.420;2022-12-18T12:36:50;3.90;94.80
20856;DHT22;63058;49.424;8.420;2022-12-18T12:39:22;3.80;94.60
20856;DHT22;63058;49.424;8.420;2022-12-18T12:41:49;3.80;94.90
20856;DHT22;63058;49.424;8.420;2022-12-18T12:44:44;3.70;95.10
20856;DHT22;63058;49.424;8.420;2022-12-18T12:47:17;3.70;94.80
20856;DHT22;63058;49.424;8.420;2022-12-18T12:49:45;3.60;94.80
20856;DHT22;63058;49.424;8.420;2022-12-18T12:52:20;3.60;95.00
20856;DHT22;63058;49.424;8.420;2022-12-18T12:54:47;3.50;94.90
20856;DHT22;63058;49.424;8.420;2022-12-18T12:57:43;3.40;95.20
20856;DHT22;63058;49.424;8.420;2022-12-18T13:00:16;3.40;94.80
20856;DHT22;63058;49.424;8.420;2022-12-18T13:05:35;3.30;94.90
20856;DHT22;63058;49.424;8.420;2022-12-18T13:08:06;3.30;95.50
20856;DHT22;63058;49.424;8.420;2022-12-18T13:10:40;3.20;95.40
20856;DHT22;63058;49.424;8.420;2022-12-18T13:15:41;3.10;95.50
20856;DHT22;63058;49.424;8.420;2022-12-18T13:20:42;3.10;95.70
20856;DHT22;63058;49.424;8.420;2022-12-18T13:26:00;3.00;95.00
20856;DHT22;63058;49.424;8.420;2022-12-18T13:31:11;3.10;95.80
20856;DHT22;63058;49.424;8.420;2022-12-18T13:33:39;3.00;95.70
20856;DHT22;63058;49.424;8.420;2022-12-18T13:36:27;3.00;95.50
20856;DHT22;63058;49.424;8.420;2022-12-18T13:41:41;2.90;94.60
20856;DHT22;63058;49.424;8.420;2022-12-18T13:44:33;2.90;95.40
20856;DHT22;63058;49.424;8.420;2022-12-18T13:47:01;2.90;94.90
20856;DHT22;63058;49.424;8.420;2022-12-18T13:49:38;2.80;95.30
20856;DHT22;63058;49.424;8.420;2022-12-18T13:54:55;2.80;94.60
20856;DHT22;63058;49.424;8.420;2022-12-18T13:57:30;2.70;95.10
20856;DHT22;63058;49.424;8.420;2022-12-18T13:59:58;2.70;94.90
20856;DHT22;63058;49.424;8.420;2022-12-18T14:02:26;2.60;95.00
20856;DHT22;63058;49.424;8.420;2022-12-18T14:04:52;2.60;95.10
20856;DHT22;63058;49.424;8.420;2022-12-18T14:09:53;2.50;95.00
20856;DHT22;63058;49.424;8.420;2022-12-18T14:12:26;2.50;95.00
20856;DHT22;63058;49.424;8.420;2022-12-18T14:20:44;2.40;95.50
20856;DHT22;63058;49.424;8.420;2022-12-18T14:23:32;2.30;95.20
20856;DHT22;63058;49.424;8.420;2022-12-18T14:25:59;2.30;94.70
20856;DHT22;63058;49.424;8.420;2022-12-18T14:28:25;2.30;95.20
20856;DHT22;63058;49.424;8.420;2022-12-18T14:30:52;2.20;95.10
20856;DHT22;63058;49.424;8.420;2022-12-18T14:33:24;2.20;95.00
20856;DHT22;63058;49.424;8.420;2022-12-18T14:36:01;2.10;94.90
20856;DHT22;63058;49.424;8.420;2022-12-18T14:38:28;2.00;94.60
20856;DHT22;63058;49.424;8.420;2022-12-18T14:41:14;2.00;95.00
20856;DHT22;63058;49.424;8.420;2022-12-18T14:43:42;1.90;95.00
20856;DHT22;63058;49.424;8.420;2022-12-18T14:46:34;1.90;94.80
20856;DHT22;63058;49.424;8.420;2022-12-18T14:49:40;1.80;94.30
20856;DHT22;63058;49.424;8.420;2022-12-18T14:52:06;1.80;94.50
20856;DHT22;63058;49.424;8.420;2022-12-18T14:54:46;1.70;94.90
20856;DHT22;63058;49.424;8.420;2022-12-18T14:57:19;1.70;95.20
20856;DHT22;63058;49.424;8.420;2022-12-18T14:59:46;1.60;94.90
20856;DHT22;63058;49.424;8.420;2022-12-18T15:02:22;1.60;95.00
20856;DHT22;63058;49.424;8.420;2022-12-18T15:05:18;1.50;94.60
20856;DHT22;63058;49.424;8.420;2022-12-18T15:07:47;1.50;94.60
20856;DHT22;63058;49.424;8.420;2022-12-18T15:10:19;1.40;94.80
20856;DHT22;63058;49.424;8.420;2022-12-18T15:13:09;1.40;94.80
20856;DHT22;63058;49.424;8.420;2022-12-18T15:15:44;1.30;94.50
20856;DHT22;63058;49.424;8.420;2022-12-18T15:18:14;1.20;94.70
20856;DHT22;63058;49.424;8.420;2022-12-18T15:20:54;1.20;94.70
20856;DHT22;63058;49.424;8.420;2022-12-18T15:26:14;1.10;94.60
20856;DHT22;63058;49.424;8.420;2022-12-18T15:28:54;1.00;94.50
20856;DHT22;63058;49.424;8.420;2022-12-18T15:36:24;0.90;94.70
20856;DHT22;63058;49.424;8.420;2022-12-18T15:38:53;0.80;94.60
20856;DHT22;63058;49.424;8.420;2022-12-18T15:41:20;0.70;94.80
20856;DHT22;63058;49.424;8.420;2022-12-18T15:43:51;0.80;94.90
20856;DHT22;63058;49.424;8.420;2022-12-18T15:48:53;0.70;95.10
20856;DHT22;63058;49.424;8.420;2022-12-18T15:51:33;0.60;94.90
20856;DHT22;63058;49.424;8.420;2022-12-18T15:54:01;0.60;94.90
20856;DHT22;63058;49.424;8.420;2022-12-18T15:56:29;0.60;95.10
20856;DHT22;63058;49.424;8.420;2022-12-18T15:59:23;0.60;95.20
20856;DHT22;63058;49.424;8.420;2022-12-18T16:01:51;0.60;95.10
20856;DHT22;63058;49.424;8.420;2022-12-18T16:04:21;0.70;95.20
20856;DHT22;63058;49.424;8.420;2022-12-18T16:06:48;0.60;95.30
20856;DHT22;63058;49.424;8.420;2022-12-18T16:09:14;0.70;95.40
20856;DHT22;63058;49.424;8.420;2022-12-18T16:11:42;0.60;95.40
20856;DHT22;63058;49.424;8.420;2022-12-18T16:16:36;0.60;95.30
20856;DHT22;63058;49.424;8.420;2022-12-18T16:19:02;0.60;95.30
20856;DHT22;63058;49.424;8.420;2022-12-18T16:21:28;0.60;95.70
20856;DHT22;63058;49.424;8.420;2022-12-18T16:23:53;0.60;95.40
20856;DHT22;63058;49.424;8.420;2022-12-18T16:26:19;0.60;95.30
20856;DHT22;63058;49.424;8.420;2022-12-18T16:28:44;0.60;95.20
20856;DHT22;63058;49.424;8.420;2022-12-18T16:31:10;0.60;95.30
20856;DHT22;63058;49.424;8.420;2022-12-18T16:33:36;0.60;95.20
20856;DHT22;63058;49.424;8.420;2022-12-18T16:36:02;0.50;95.20
20856;DHT22;63058;49.424;8.420;2022-12-18T16:38:27;0.50;95.30
20856;DHT22;63058;49.424;8.420;2022-12-18T16:40:53;0.70;95.30
20856;DHT22;63058;49.424;8.420;2022-12-18T16:43:37;0.60;95.30
20856;DHT22;63058;49.424;8.420;2022-12-18T16:46:02;0.50;95.40
20856;DHT22;63058;49.424;8.420;2022-12-18T16:48:28;0.50;95.30
20856;DHT22;63058;49.424;8.420;2022-12-18T16:51:01;0.50;95.30
20856;DHT22;63058;49.424;8.420;2022-12-18T16:53:27;0.40;95.10
20856;DHT22;63058;49.424;8.420;2022-12-18T16:55:56;0.40;95.20
20856;DHT22;63058;49.424;8.420;2022-12-18T16:58:22;0.50;95.10
20856;DHT22;63058;49.424;8.420;2022-12-18T17:00:48;0.30;95.20
20856;DHT22;63058;49.424;8.420;2022-12-18T17:03:13;0.30;95.30
20856;DHT22;63058;49.424;8.420;2022-12-18T17:05:39;0.30;95.20
20856;DHT22;63058;49.424;8.420;2022-12-18T17:08:05;0.30;95.20
20856;DHT22;63058;49.424;8.420;2022-12-18T17:10:31;0.30;95.20
20856;DHT22;63058;49.424;8.420;2022-12-18T17:12:56;0.20;95.20
20856;DHT22;63058;49.424;8.420;2022-12-18T17:15:22;0.20;95.30
20856;DHT22;63058;49.424;8.420;2022-12-18T17:17:48;0.20;95.20
20856;DHT22;63058;49.424;8.420;2022-12-18T17:20:13;0.20;95.20
20856;DHT22;63058;49.424;8.420;2022-12-18T17:22:39;0.20;95.20
20856;DHT22;63058;49.424;8.420;2022-12-18T17:25:05;0.20;95.10
20856;DHT22;63058;49.424;8.420;2022-12-18T17:27:30;0.20;95.00
20856;DHT22;63058;49.424;8.420;2022-12-18T17:29:56;0.10;95.00
20856;DHT22;63058;49.424;8.420;2022-12-18T17:32:22;0.00;95.10
20856;DHT22;63058;49.424;8.420;2022-12-18T17:34:48;0.00;95.10
20856;DHT22;63058;49.424;8.420;2022-12-18T17:37:13;0.10;95.20
20856;DHT22;63058;49.424;8.420;2022-12-18T17:39:39;0.00;95.20
20856;DHT22;63058;49.424;8.420;2022-12-18T17:42:06;0.00;95.30
20856;DHT22;63058;49.424;8.420;2022-12-18T17:44:34;-0.10;95.70